Time;durP1;ratioP1;P1;durP2;ratioP2;P2;SDS_P1;SDS_P2;PMS_P1;PMS_P2;Temp;Humidity;BMP_temperature;BMP_pressure;BME280_temperature;BME280_humidity;BME280_pressure;Samples;Min_cycle;Max_cycle;Signal;HPM_P1;HPM_P2
2022/08/16 00:02:12;;;;;;;6.72;4.65;;;20.30;99.90;;;;;;5054396;28;20027;-77
2022/08/16 00:04:38;;;;;;;7.28;5.28;;;20.20;99.90;;;;;;5060493;28;20426;-76
2022/08/16 00:07:04;;;;;;;6.75;4.18;;;20.20;99.90;;;;;;5060209;28;20090;-76
2022/08/16 00:09:30;;;;;;;5.80;4.32;;;20.10;99.90;;;;;;5062246;28;20127;-75
2022/08/16 00:11:55;;;;;;;8.05;5.05;;;20.10;99.90;;;;;;5062482;28;20467;-76
2022/08/16 00:14:29;;;;;;;6.10;4.50;;;20.00;99.90;;;;;;5063216;28;20032;-76
2022/08/16 00:16:55;;;;;;;8.60;4.32;;;20.10;99.90;;;;;;5055755;28;20036;-76
2022/08/16 00:19:24;;;;;;;6.53;4.35;;;20.00;99.90;;;;;;5057102;28;20229;-76
2022/08/16 00:21:51;;;;;;;6.70;4.20;;;20.00;99.90;;;;;;5056010;28;20518;-76
2022/08/16 00:24:21;;;;;;;5.57;3.70;;;20.00;99.90;;;;;;5058748;28;20032;-75
2022/08/16 00:26:46;;;;;;;6.90;4.22;;;19.90;99.90;;;;;;5062239;28;20028;-76
2022/08/16 00:29:14;;;;;;;6.53;4.25;;;19.90;99.90;;;;;;5060518;28;20035;-77
2022/08/16 00:31:41;;;;;;;7.15;4.25;;;19.90;99.90;;;;;;5060660;28;20027;-76
2022/08/16 00:34:06;;;;;;;9.73;5.03;;;19.80;99.90;;;;;;5065187;28;20036;-76
2022/08/16 00:36:32;;;;;;;7.35;4.45;;;19.80;99.90;;;;;;5061496;28;20089;-75
2022/08/16 00:38:57;;;;;;;7.60;3.97;;;19.90;99.90;;;;;;5062260;28;20383;-76
2022/08/16 00:41:23;;;;;;;8.95;4.95;;;19.90;99.90;;;;;;5062967;28;20070;-75
2022/08/16 00:43:49;;;;;;;9.15;4.93;;;19.80;99.90;;;;;;5061031;28;20027;-76
2022/08/16 00:46:20;;;;;;;7.30;4.55;;;19.90;99.90;;;;;;5057246;28;20025;-76
2022/08/16 00:48:47;;;;;;;;;;;19.90;99.90;;;;;;5057019;28;20036;-76
2022/08/16 00:51:14;;;;;;;6.82;4.25;;;19.90;99.90;;;;;;5054176;28;19913;-76
2022/08/16 00:53:40;;;;;;;6.95;4.28;;;19.90;99.90;;;;;;5055518;28;20029;-76
2022/08/16 00:56:12;;;;;;;6.82;3.97;;;19.90;99.90;;;;;;5063368;28;20056;-76
2022/08/16 00:58:42;;;;;;;5.60;3.45;;;19.90;99.90;;;;;;5064644;28;20024;-75
2022/08/16 01:01:09;;;;;;;8.18;4.45;;;20.00;99.90;;;;;;5062724;28;20048;-76
2022/08/16 01:03:37;;;;;;;9.30;3.92;;;20.00;99.90;;;;;;5058262;28;20162;-75
2022/08/16 01:06:05;;;;;;;6.15;3.75;;;19.90;99.90;;;;;;5058012;28;20407;-75
2022/08/16 01:08:31;;;;;;;6.60;3.92;;;20.00;99.90;;;;;;5062442;28;20082;-75
2022/08/16 01:10:57;;;;;;;6.53;4.03;;;20.00;99.90;;;;;;5059852;28;20021;-77
2022/08/16 01:13:28;;;;;;;7.80;3.95;;;19.90;99.90;;;;;;5059487;28;20040;-77
2022/08/16 01:15:57;;;;;;;6.93;3.75;;;19.90;99.90;;;;;;5057206;28;20051;-76
2022/08/16 01:18:28;;;;;;;5.75;3.65;;;19.90;99.90;;;;;;5056809;28;20830;-76
2022/08/16 01:21:28;;;;;;;7.07;3.85;;;19.90;99.90;;;;;;5052749;28;20410;-77
2022/08/16 01:24:50;;;;;;;7.03;3.58;;;19.90;99.90;;;;;;5040096;28;20045;-76
2022/08/16 01:27:33;;;;;;;5.85;3.53;;;19.80;99.90;;;;;;4966477;28;20100;-77
2022/08/16 01:30:16;;;;;;;5.82;3.63;;;19.70;99.90;;;;;;4969451;28;20419;-76
2022/08/16 01:32:42;;;;;;;6.28;3.95;;;19.70;99.90;;;;;;5032039;28;20115;-76
2022/08/16 01:35:15;;;;;;;6.13;3.45;;;19.50;99.90;;;;;;5059203;28;20054;-76
2022/08/16 01:37:43;;;;;;;5.70;3.33;;;19.40;99.90;;;;;;5052766;28;20416;-76
2022/08/16 01:40:09;;;;;;;5.22;4.05;;;19.50;99.90;;;;;;5060553;28;20024;-76
2022/08/16 01:42:35;;;;;;;4.80;3.10;;;19.30;99.90;;;;;;5053821;28;20364;-76
2022/08/16 01:45:00;;;;;;;6.85;4.10;;;19.30;99.90;;;;;;5059702;28;20023;-76
2022/08/16 01:47:27;;;;;;;7.60;3.83;;;19.40;99.90;;;;;;5056862;28;20044;-76
2022/08/16 01:49:52;;;;;;;6.15;4.15;;;19.40;99.90;;;;;;5062369;28;20036;-76
2022/08/16 01:52:18;;;;;;;8.30;3.83;;;19.30;99.90;;;;;;5057768;28;20077;-77
2022/08/16 01:54:44;;;;;;;4.68;3.40;;;19.20;99.90;;;;;;5060075;28;20024;-76
2022/08/16 01:57:10;;;;;;;7.25;3.30;;;19.20;99.90;;;;;;5062830;28;20506;-75
2022/08/16 01:59:36;;;;;;;8.50;3.95;;;19.20;99.90;;;;;;5058330;28;20131;-76
2022/08/16 02:02:04;;;;;;;5.95;3.60;;;19.10;99.90;;;;;;5057334;28;20029;-76
2022/08/16 02:04:32;;;;;;;7.47;4.35;;;19.10;99.90;;;;;;5054103;28;20033;-76
2022/08/16 02:06:58;;;;;;;7.28;3.50;;;19.10;99.90;;;;;;5054762;28;20052;-77
2022/08/16 02:09:24;;;;;;;5.38;3.50;;;19.00;99.90;;;;;;5054915;28;20479;-76
2022/08/16 02:11:54;;;;;;;7.10;3.95;;;19.00;99.90;;;;;;5058312;28;20029;-76
2022/08/16 02:14:27;;;;;;;7.22;4.28;;;19.00;99.90;;;;;;5058821;28;20505;-76
2022/08/16 02:16:54;;;;;;;6.85;4.00;;;18.90;99.90;;;;;;5060507;28;20032;-76
2022/08/16 02:19:20;;;;;;;5.43;3.30;;;18.90;99.90;;;;;;5058386;28;20111;-76
2022/08/16 02:21:49;;;;;;;6.63;3.85;;;18.90;99.90;;;;;;5057805;28;20173;-76
2022/08/16 02:24:14;;;;;;;6.90;3.20;;;18.80;99.90;;;;;;5062679;28;20043;-75
2022/08/16 02:26:40;;;;;;;5.45;3.40;;;18.80;99.90;;;;;;5056778;28;20052;-76
2022/08/16 02:29:05;;;;;;;5.32;2.97;;;18.90;99.90;;;;;;5060403;28;20579;-76
2022/08/16 02:31:31;;;;;;;7.07;4.32;;;18.90;99.90;;;;;;5051371;28;20028;-76
2022/08/16 02:33:56;;;;;;;7.85;3.85;;;18.90;99.90;;;;;;5058257;28;20031;-76
2022/08/16 02:36:22;;;;;;;5.93;3.53;;;18.80;99.90;;;;;;5054095;28;20151;-76
2022/08/16 02:38:48;;;;;;;5.63;3.70;;;18.80;99.90;;;;;;5058735;28;20352;-76
2022/08/16 02:41:13;;;;;;;4.65;3.53;;;18.80;99.90;;;;;;5058282;28;20112;-76
2022/08/16 02:43:39;;;;;;;4.45;3.00;;;18.80;99.90;;;;;;5059847;28;20024;-75
2022/08/16 02:46:06;;;;;;;6.18;3.67;;;18.80;99.90;;;;;;5059367;28;20024;-75
2022/08/16 02:48:31;;;;;;;5.40;3.80;;;18.80;99.90;;;;;;5057351;28;20119;-75
2022/08/16 02:50:59;;;;;;;5.55;3.15;;;18.70;99.90;;;;;;5058014;28;20124;-76
2022/08/16 02:53:24;;;;;;;5.30;3.38;;;18.70;99.90;;;;;;5059046;28;20060;-75
2022/08/16 02:55:51;;;;;;;6.07;3.63;;;18.70;99.90;;;;;;5058313;28;20075;-75
2022/08/16 02:58:18;;;;;;;5.30;3.17;;;18.60;99.90;;;;;;5055780;28;20463;-75
2022/08/16 03:00:44;;;;;;;5.30;3.38;;;18.70;99.90;;;;;;5051889;28;20027;-76
2022/08/16 03:03:09;;;;;;;8.07;3.63;;;18.60;99.90;;;;;;5052555;28;20021;-75
2022/08/16 03:05:35;;;;;;;4.88;3.35;;;18.60;99.90;;;;;;5054705;28;20086;-76
2022/08/16 03:08:00;;;;;;;5.97;3.72;;;18.50;99.90;;;;;;5061210;28;20392;-74
2022/08/16 03:10:26;;;;;;;5.68;3.25;;;18.60;99.90;;;;;;5055764;28;20028;-75
2022/08/16 03:12:58;;;;;;;7.10;3.25;;;18.60;99.90;;;;;;5061708;28;20024;-77
2022/08/16 03:15:24;;;;;;;8.38;4.07;;;18.50;99.90;;;;;;5055485;28;20085;-75
2022/08/16 03:17:49;;;;;;;5.20;3.30;;;18.50;99.90;;;;;;5059358;28;20032;-75
2022/08/16 03:20:16;;;;;;;7.28;3.88;;;18.50;99.90;;;;;;5060556;28;20093;-75
2022/08/16 03:22:41;;;;;;;5.75;3.70;;;18.50;99.90;;;;;;5058259;28;20425;-75
2022/08/16 03:25:10;;;;;;;6.63;3.40;;;18.40;99.90;;;;;;5059623;28;20111;-75
2022/08/16 03:27:37;;;;;;;7.05;4.00;;;18.40;99.90;;;;;;5055649;28;20178;-75
2022/08/16 03:30:08;;;;;;;4.38;2.90;;;18.40;99.90;;;;;;5059858;28;20089;-75
2022/08/16 03:32:34;;;;;;;4.88;3.38;;;18.40;99.90;;;;;;5058006;28;20432;-75
2022/08/16 03:34:59;;;;;;;6.53;4.00;;;18.40;99.90;;;;;;5059424;28;20028;-75
2022/08/16 03:37:25;;;;;;;5.43;4.00;;;18.40;99.90;;;;;;5057757;28;20559;-75
2022/08/16 03:39:50;;;;;;;6.10;3.55;;;18.30;99.90;;;;;;5058640;28;20037;-75
2022/08/16 03:42:18;;;;;;;7.28;3.40;;;18.40;99.90;;;;;;5059922;28;20102;-77
2022/08/16 03:44:44;;;;;;;6.95;3.75;;;18.30;99.90;;;;;;5063724;28;20028;-76
2022/08/16 03:47:09;;;;;;;6.25;3.47;;;18.30;99.90;;;;;;5058169;28;20027;-76
2022/08/16 03:49:35;;;;;;;8.23;4.47;;;18.30;99.90;;;;;;5060319;28;20040;-76
2022/08/16 03:52:01;;;;;;;7.70;3.65;;;18.30;99.90;;;;;;5063020;28;20041;-76
2022/08/16 03:54:27;;;;;;;6.40;3.63;;;18.30;99.90;;;;;;5066259;28;20032;-76
2022/08/16 03:56:52;;;;;;;5.82;3.63;;;18.30;99.90;;;;;;5061181;28;20112;-76
2022/08/16 03:59:18;;;;;;;6.85;2.90;;;18.30;99.90;;;;;;5061396;28;20020;-77
2022/08/16 04:01:43;;;;;;;5.57;3.55;;;18.30;99.90;;;;;;5056204;28;20392;-77
2022/08/16 04:04:09;;;;;;;5.28;3.47;;;18.30;99.90;;;;;;5060443;28;20020;-76
2022/08/16 04:06:34;;;;;;;16.45;4.47;;;18.20;99.90;;;;;;5059463;28;20190;-77
2022/08/16 04:09:00;;;;;;;6.60;3.70;;;18.30;99.90;;;;;;5063386;28;20028;-76
2022/08/16 04:11:25;;;;;;;5.90;3.28;;;18.30;99.90;;;;;;5060797;28;20471;-76
2022/08/16 04:13:51;;;;;;;6.20;4.35;;;18.20;99.90;;;;;;5058804;28;20040;-76
2022/08/16 04:16:16;;;;;;;5.13;3.45;;;18.30;99.90;;;;;;5064003;28;20031;-76
2022/08/16 04:18:42;;;;;;;5.57;3.30;;;18.30;99.90;;;;;;5056739;28;20032;-77
2022/08/16 04:21:09;;;;;;;8.73;3.75;;;18.30;99.90;;;;;;5055139;28;20716;-76
2022/08/16 04:23:36;;;;;;;4.85;3.50;;;18.30;99.90;;;;;;5058548;28;20032;-77
2022/08/16 04:26:02;;;;;;;7.72;3.55;;;18.30;99.90;;;;;;5059079;28;20031;-77
2022/08/16 04:28:28;;;;;;;5.50;3.55;;;18.30;99.90;;;;;;5061907;28;20128;-76
2022/08/16 04:30:54;;;;;;;7.18;3.72;;;18.30;99.90;;;;;;5056476;28;20108;-77
2022/08/16 04:33:19;;;;;;;4.38;3.22;;;18.40;99.90;;;;;;5058843;28;20645;-76
2022/08/16 04:35:45;;;;;;;6.30;3.50;;;18.40;99.90;;;;;;5062064;28;20025;-77
2022/08/16 04:38:11;;;;;;;4.88;3.58;;;18.40;99.90;;;;;;5062551;28;20063;-77
2022/08/16 04:40:36;;;;;;;5.32;3.53;;;18.40;99.90;;;;;;5056524;28;20031;-76
2022/08/16 04:43:02;;;;;;;7.72;3.63;;;18.50;99.90;;;;;;5061789;28;20399;-76
2022/08/16 04:45:28;;;;;;;5.88;3.13;;;18.50;99.90;;;;;;5063270;28;21707;-77
2022/08/16 04:47:54;;;;;;;5.32;3.53;;;18.50;99.90;;;;;;5060496;28;20494;-76
2022/08/16 04:50:22;;;;;;;6.60;4.13;;;18.50;99.90;;;;;;5059105;28;20365;-77
2022/08/16 04:52:49;;;;;;;7.80;4.13;;;18.50;99.90;;;;;;5057162;28;20043;-77
2022/08/16 04:55:19;;;;;;;6.03;3.25;;;18.60;99.90;;;;;;5058400;28;20031;-76
2022/08/16 04:57:47;;;;;;;5.75;3.25;;;18.60;99.90;;;;;;5059300;28;20063;-76
2022/08/16 05:00:18;;;;;;;5.03;3.47;;;18.60;99.90;;;;;;5050930;28;20111;-77
2022/08/16 05:02:44;;;;;;;6.35;3.60;;;18.70;99.90;;;;;;5056807;28;20063;-77
2022/08/16 05:05:10;;;;;;;5.85;3.53;;;18.70;99.90;;;;;;5060576;28;20052;-77
2022/08/16 05:07:36;;;;;;;6.55;3.70;;;18.80;99.90;;;;;;5060476;28;20043;-77
2022/08/16 05:10:04;;;;;;;5.18;3.75;;;18.80;99.90;;;;;;5062826;28;20028;-77
2022/08/16 05:12:30;;;;;;;5.70;4.15;;;18.90;99.90;;;;;;5061219;28;20032;-77
2022/08/16 05:14:55;;;;;;;9.07;4.47;;;18.90;99.90;;;;;;5065366;28;20043;-76
2022/08/16 05:17:21;;;;;;;6.32;3.33;;;19.00;99.90;;;;;;5060099;28;20028;-76
2022/08/16 05:19:48;;;;;;;6.15;4.20;;;19.10;99.90;;;;;;5058473;28;20028;-77
2022/08/16 05:22:13;;;;;;;6.90;4.22;;;19.10;99.90;;;;;;5061489;28;20563;-77
2022/08/16 05:24:39;;;;;;;6.00;4.15;;;19.20;99.90;;;;;;5061527;28;20089;-76
2022/08/16 05:27:04;;;;;;;7.07;3.63;;;19.20;99.90;;;;;;5056863;28;20056;-77
2022/08/16 05:29:30;;;;;;;7.25;4.65;;;19.30;99.90;;;;;;5059647;28;20081;-76
2022/08/16 05:31:55;;;;;;;6.85;4.22;;;19.40;99.90;;;;;;5060354;28;20528;-76
2022/08/16 05:34:21;;;;;;;6.93;4.13;;;19.40;99.90;;;;;;5059382;28;20382;-77
2022/08/16 05:36:51;;;;;;;7.75;4.55;;;19.60;99.90;;;;;;5047546;28;20021;-77
2022/08/16 05:39:18;;;;;;;10.13;4.40;;;19.60;99.90;;;;;;5061882;28;20074;-76
2022/08/16 05:41:44;;;;;;;9.90;5.28;;;19.70;99.90;;;;;;5059231;28;20539;-76
2022/08/16 05:44:09;;;;;;;8.82;5.18;;;19.90;99.90;;;;;;5060863;28;20024;-76
2022/08/16 05:46:35;;;;;;;8.85;5.32;;;20.00;99.90;;;;;;5056427;28;20123;-77
2022/08/16 05:49:00;;;;;;;9.65;5.60;;;20.00;99.90;;;;;;5055589;28;20074;-75
2022/08/16 05:51:26;;;;;;;8.73;4.70;;;20.10;99.90;;;;;;5055428;28;20033;-74
2022/08/16 05:53:51;;;;;;;9.30;5.30;;;20.20;99.90;;;;;;5061389;28;20386;-73
2022/08/16 05:56:17;;;;;;;11.18;5.40;;;20.20;99.90;;;;;;5061951;28;20025;-73
2022/08/16 05:58:42;;;;;;;10.55;5.30;;;20.30;99.90;;;;;;5059123;28;20039;-75
2022/08/16 06:01:08;;;;;;;9.15;5.30;;;20.30;99.90;;;;;;5063307;28;20024;-83
2022/08/16 06:03:34;;;;;;;8.98;5.45;;;20.40;99.90;;;;;;5056925;28;20021;-82
2022/08/16 06:05:59;;;;;;;9.27;4.85;;;20.50;99.90;;;;;;5060527;28;20705;-79
2022/08/16 06:08:25;;;;;;;9.20;5.88;;;20.50;99.90;;;;;;5060203;28;20036;-80
2022/08/16 06:10:51;;;;;;;9.18;5.20;;;20.60;99.90;;;;;;5058535;28;20488;-80
2022/08/16 06:13:17;;;;;;;12.70;5.47;;;20.70;99.90;;;;;;5061970;28;20047;-80
2022/08/16 06:15:42;;;;;;;8.52;5.30;;;20.70;99.90;;;;;;5057232;28;20479;-80
2022/08/16 06:18:07;;;;;;;8.38;5.13;;;20.80;99.90;;;;;;5056623;28;20037;-79
2022/08/16 06:20:33;;;;;;;8.73;5.82;;;20.80;99.90;;;;;;5053671;28;20047;-79
2022/08/16 06:22:59;;;;;;;9.90;5.65;;;20.90;99.90;;;;;;5055588;28;20024;-78
2022/08/16 06:25:26;;;;;;;8.55;4.97;;;21.00;99.90;;;;;;5056756;28;20512;-77
2022/08/16 06:27:52;;;;;;;8.13;5.22;;;21.00;99.90;;;;;;5063247;28;20145;-77
2022/08/16 06:30:18;;;;;;;8.63;4.95;;;21.00;99.90;;;;;;5058331;28;20479;-80
2022/08/16 06:32:44;;;;;;;11.35;5.65;;;21.10;99.90;;;;;;5059930;28;20090;-78
2022/08/16 06:35:10;;;;;;;12.70;5.55;;;21.10;99.90;;;;;;5060514;28;20020;-77
2022/08/16 06:37:36;;;;;;;9.10;5.07;;;21.20;99.90;;;;;;5059487;28;20055;-76
2022/08/16 06:40:03;;;;;;;11.40;5.28;;;21.20;99.90;;;;;;5059281;28;20483;-76
2022/08/16 06:42:28;;;;;;;8.75;5.25;;;21.30;99.90;;;;;;5054060;28;20043;-75
2022/08/16 06:44:54;;;;;;;9.38;5.18;;;21.30;99.90;;;;;;5054496;28;20021;-75
2022/08/16 06:47:19;;;;;;;9.32;4.50;;;21.40;99.90;;;;;;5058430;28;20116;-76
2022/08/16 06:49:45;;;;;;;9.93;5.00;;;21.40;99.90;;;;;;5059071;28;20032;-76
2022/08/16 06:52:10;;;;;;;8.77;5.53;;;21.50;99.90;;;;;;5062223;28;20032;-76
2022/08/16 06:54:36;;;;;;;8.55;4.70;;;21.50;99.90;;;;;;5058911;28;20064;-81
2022/08/16 06:57:02;;;;;;;12.27;5.47;;;21.50;99.90;;;;;;5057068;28;20036;-76
2022/08/16 06:59:28;;;;;;;6.28;4.47;;;21.50;99.90;;;;;;5052600;28;20029;-75
2022/08/16 07:01:53;;;;;;;6.38;3.95;;;21.60;99.90;;;;;;5055435;28;20501;-75
2022/08/16 07:04:19;;;;;;;9.93;4.18;;;21.60;99.90;;;;;;5053853;28;20448;-74
2022/08/16 07:06:44;;;;;;;8.63;4.55;;;21.70;99.90;;;;;;5059971;28;20051;-75
2022/08/16 07:09:12;;;;;;;6.22;3.90;;;21.70;99.90;;;;;;5061321;28;20017;-75
2022/08/16 07:11:37;;;;;;;7.55;4.93;;;21.80;99.90;;;;;;5064083;28;20383;-75
2022/08/16 07:14:03;;;;;;;6.95;4.88;;;21.90;99.90;;;;;;5065031;28;20025;-75
2022/08/16 07:16:28;;;;;;;4.95;3.83;;;22.00;99.90;;;;;;5066787;28;20051;-75
2022/08/16 07:18:54;;;;;;;6.07;4.15;;;21.90;99.90;;;;;;5060781;28;20035;-75
2022/08/16 07:21:21;;;;;;;8.80;4.78;;;22.00;99.90;;;;;;5059154;28;20116;-74
2022/08/16 07:23:46;;;;;;;7.43;4.15;;;22.00;99.90;;;;;;5059160;28;20032;-76
2022/08/16 07:26:24;;;;;;;8.50;4.90;;;22.00;99.90;;;;;;5060401;28;20025;-73
2022/08/16 07:28:50;;;;;;;8.82;4.50;;;22.00;99.90;;;;;;5059127;28;20028;-74
2022/08/16 07:31:16;;;;;;;7.88;4.50;;;22.10;99.90;;;;;;5063537;28;20031;-73
2022/08/16 07:33:43;;;;;;;6.35;3.75;;;22.20;99.90;;;;;;5061954;28;20101;-73
2022/08/16 07:36:10;;;;;;;10.80;4.40;;;22.20;99.90;;;;;;5063229;28;20036;-74
2022/08/16 07:38:37;;;;;;;5.78;3.97;;;22.30;99.90;;;;;;5053562;28;20040;-78
2022/08/16 07:41:03;;;;;;;5.93;4.35;;;22.30;99.90;;;;;;5053257;28;20758;-77
2022/08/16 07:43:29;;;;;;;6.50;3.50;;;22.50;99.90;;;;;;5060665;28;20187;-78
2022/08/16 07:45:54;;;;;;;7.40;4.72;;;22.50;99.90;;;;;;5061303;28;20099;-76
2022/08/16 07:48:20;;;;;;;12.35;4.20;;;22.70;99.90;;;;;;5062444;28;20487;-76
2022/08/16 07:50:46;;;;;;;7.47;4.22;;;22.80;99.90;;;;;;5062134;28;20039;-75
2022/08/16 07:53:12;;;;;;;7.35;4.05;;;22.90;99.90;;;;;;5056686;28;20024;-77
2022/08/16 07:55:38;;;;;;;5.13;3.95;;;23.00;99.90;;;;;;5056237;28;20058;-78
2022/08/16 07:58:04;;;;;;;7.35;4.07;;;23.10;99.90;;;;;;5059669;28;20021;-78
2022/08/16 08:00:30;;;;;;;6.57;4.47;;;23.10;99.90;;;;;;5054960;28;20044;-78
2022/08/16 08:02:56;;;;;;;5.30;4.13;;;23.20;99.90;;;;;;5061143;28;20501;-79
2022/08/16 08:05:23;;;;;;;4.95;3.38;;;23.20;99.90;;;;;;5062496;28;20059;-79
2022/08/16 08:07:48;;;;;;;7.18;4.63;;;23.30;99.90;;;;;;5057860;28;21356;-80
2022/08/16 08:10:14;;;;;;;5.15;3.88;;;23.50;99.90;;;;;;5055961;28;20523;-82
2022/08/16 08:12:42;;;;;;;5.90;4.50;;;23.50;99.90;;;;;;5058729;28;20032;-79
2022/08/16 08:15:10;;;;;;;5.80;4.25;;;23.50;99.90;;;;;;5057788;28;20445;-80
2022/08/16 08:17:38;;;;;;;7.95;4.28;;;23.60;99.90;;;;;;5055944;28;20064;-78
2022/08/16 08:20:06;;;;;;;5.65;4.20;;;23.60;99.90;;;;;;5056266;28;20678;-77
2022/08/16 08:22:32;;;;;;;8.02;4.93;;;23.60;99.90;;;;;;5058074;28;20039;-78
2022/08/16 08:24:58;;;;;;;6.10;4.00;;;23.70;99.90;;;;;;5056624;28;20513;-78
2022/08/16 08:27:23;;;;;;;6.88;4.50;;;23.80;99.90;;;;;;5056540;28;20094;-78
2022/08/16 08:29:51;;;;;;;7.75;4.22;;;23.80;99.90;;;;;;5049767;28;20066;-77
2022/08/16 08:32:20;;;;;;;5.60;3.95;;;24.00;99.90;;;;;;5052670;28;20105;-79
2022/08/16 08:34:46;;;;;;;6.55;3.92;;;24.00;99.90;;;;;;5054054;28;20127;-77
2022/08/16 08:37:11;;;;;;;5.50;3.90;;;24.00;99.90;;;;;;5058941;28;20020;-78
2022/08/16 08:39:37;;;;;;;8.43;5.38;;;24.00;99.90;;;;;;5052395;28;20036;-78
2022/08/16 08:42:04;;;;;;;7.47;4.75;;;24.10;99.90;;;;;;5049085;28;20606;-78
2022/08/16 08:44:32;;;;;;;8.23;4.85;;;24.20;99.90;;;;;;5049366;28;20024;-78
2022/08/16 08:46:59;;;;;;;5.70;4.00;;;24.20;99.90;;;;;;5054742;28;20040;-78
2022/08/16 08:49:25;;;;;;;5.60;4.10;;;24.20;99.90;;;;;;5054441;28;20075;-78
2022/08/16 08:51:51;;;;;;;7.78;4.13;;;24.50;99.90;;;;;;5060296;28;20079;-78
2022/08/16 08:54:16;;;;;;;5.97;3.97;;;24.50;99.90;;;;;;5059128;28;20028;-78
2022/08/16 08:56:42;;;;;;;6.38;3.80;;;24.60;99.90;;;;;;5058224;28;20571;-78
2022/08/16 08:59:08;;;;;;;7.55;4.07;;;24.70;99.90;;;;;;5055921;28;20097;-78
2022/08/16 09:01:36;;;;;;;5.10;3.78;;;24.70;99.90;;;;;;5053406;28;20052;-79
2022/08/16 09:04:02;;;;;;;4.75;3.65;;;24.70;99.90;;;;;;5057842;28;20016;-79
2022/08/16 09:06:31;;;;;;;4.30;3.63;;;24.90;99.90;;;;;;5057865;28;20132;-80
2022/08/16 09:08:57;;;;;;;5.47;3.83;;;25.00;99.90;;;;;;5058808;28;20107;-82
2022/08/16 09:11:22;;;;;;;5.95;3.65;;;25.00;99.90;;;;;;5058732;28;20045;-79
2022/08/16 09:13:49;;;;;;;6.00;3.83;;;25.00;99.90;;;;;;5059808;28;20032;-78
2022/08/16 09:16:15;;;;;;;4.80;3.33;;;25.10;99.90;;;;;;5061192;28;20020;-81
2022/08/16 09:18:41;;;;;;;5.97;4.05;;;25.20;99.90;;;;;;5052033;28;20101;-83
2022/08/16 09:21:06;;;;;;;3.88;3.28;;;25.20;99.90;;;;;;5051209;28;20029;-80
2022/08/16 09:23:34;;;;;;;6.70;3.42;;;25.30;99.90;;;;;;5048735;28;20029;-83
2022/08/16 09:26:00;;;;;;;7.30;3.65;;;25.30;99.90;;;;;;5046397;28;20297;-84
2022/08/16 09:28:27;;;;;;;5.53;3.90;;;25.40;99.90;;;;;;5045666;28;20050;-82
2022/08/16 09:30:53;;;;;;;4.93;2.95;;;25.60;99.90;;;;;;5051633;28;20111;-81
2022/08/16 09:33:19;;;;;;;6.55;4.10;;;25.60;98.80;;;;;;5048679;28;20131;-82
2022/08/16 09:35:45;;;;;;;5.88;4.10;;;25.60;98.60;;;;;;5042913;28;20037;-84
2022/08/16 09:38:12;;;;;;;4.07;3.33;;;25.50;99.00;;;;;;5046798;28;20523;-82
2022/08/16 09:40:40;;;;;;;4.35;3.00;;;25.50;98.10;;;;;;5058405;28;20698;-79
2022/08/16 09:43:06;;;;;;;5.10;3.67;;;25.60;95.20;;;;;;5056683;28;20082;-80
2022/08/16 09:45:37;;;;;;;4.53;3.35;;;25.70;95.60;;;;;;5053432;28;20037;-79
2022/08/16 09:48:04;;;;;;;6.60;3.45;;;25.80;96.80;;;;;;5048698;28;20094;-79
2022/08/16 09:50:31;;;;;;;4.32;3.50;;;25.90;98.20;;;;;;5053664;28;20020;-79
2022/08/16 09:52:56;;;;;;;3.50;2.92;;;26.00;93.30;;;;;;5045795;28;20028;-81
2022/08/16 09:55:22;;;;;;;5.72;3.53;;;26.20;92.50;;;;;;5045325;28;20028;-79
2022/08/16 09:57:47;;;;;;;3.88;2.75;;;26.40;92.30;;;;;;5055581;28;20185;-76
2022/08/16 10:00:13;;;;;;;4.28;3.20;;;26.20;93.00;;;;;;5036611;28;20057;-79
2022/08/16 10:02:40;;;;;;;5.60;3.55;;;26.30;93.90;;;;;;5055803;28;20032;-78
2022/08/16 10:05:06;;;;;;;4.15;3.30;;;26.40;91.90;;;;;;5054920;28;20024;-80
2022/08/16 10:07:31;;;;;;;4.90;3.40;;;26.40;91.20;;;;;;5056298;28;20249;-79
2022/08/16 10:09:57;;;;;;;3.95;3.15;;;26.40;91.80;;;;;;5056280;28;20032;-79
2022/08/16 10:15:22;;;;;;;6.00;3.20;;;26.40;91.30;;;;;;5047435;28;20090;-76
2022/08/16 10:17:51;;;;;;;3.58;3.15;;;26.40;90.20;;;;;;5053498;28;20035;-76
2022/08/16 10:20:17;;;;;;;4.53;3.22;;;26.60;89.80;;;;;;5048791;28;20039;-76
2022/08/16 10:22:42;;;;;;;4.50;3.50;;;26.90;88.20;;;;;;5051413;28;20305;-77
2022/08/16 10:25:08;;;;;;;5.35;3.58;;;27.20;86.70;;;;;;5048348;28;20103;-78
2022/08/16 10:27:34;;;;;;;4.55;3.50;;;27.40;87.50;;;;;;5051593;28;20579;-77
2022/08/16 10:30:01;;;;;;;3.22;2.90;;;27.60;88.10;;;;;;5054015;28;20586;-78
2022/08/16 10:32:27;;;;;;;3.90;3.22;;;27.70;87.30;;;;;;5052469;28;20037;-80
2022/08/16 10:34:52;;;;;;;4.05;3.03;;;27.60;84.60;;;;;;5049383;28;20536;-77
2022/08/16 10:37:18;;;;;;;4.78;3.17;;;27.70;87.00;;;;;;5050723;28;20032;-77
2022/08/16 10:39:43;;;;;;;5.32;3.58;;;27.80;84.00;;;;;;5049631;28;20020;-77
2022/08/16 10:42:10;;;;;;;3.47;2.67;;;28.10;80.80;;;;;;5062559;28;20081;-78
2022/08/16 10:44:36;;;;;;;4.78;3.75;;;28.20;78.90;;;;;;5055546;28;20120;-77
2022/08/16 10:47:01;;;;;;;3.60;2.80;;;28.30;78.00;;;;;;5063528;28;20100;-78
2022/08/16 10:49:27;;;;;;;5.22;3.42;;;28.30;80.00;;;;;;5053811;28;20029;-77
2022/08/16 10:51:54;;;;;;;4.57;3.33;;;28.50;75.70;;;;;;5051710;28;20103;-78
2022/08/16 10:54:20;;;;;;;3.72;3.22;;;28.50;79.20;;;;;;5054583;28;20058;-77
2022/08/16 10:56:45;;;;;;;4.70;3.58;;;28.50;78.90;;;;;;5059097;28;20422;-78
2022/08/16 10:59:11;;;;;;;3.45;2.90;;;28.90;77.30;;;;;;5062451;28;20380;-77
2022/08/16 11:01:36;;;;;;;3.88;2.92;;;29.40;73.30;;;;;;5057508;28;20074;-76
2022/08/16 11:04:02;;;;;;;5.15;3.38;;;29.50;70.90;;;;;;5052815;28;20043;-76
2022/08/16 11:06:28;;;;;;;4.55;3.30;;;29.50;71.90;;;;;;5047900;28;20572;-75
2022/08/16 11:08:55;;;;;;;5.25;3.55;;;29.60;70.90;;;;;;5054457;28;20032;-77
2022/08/16 11:11:21;;;;;;;3.97;2.85;;;29.80;75.10;;;;;;5053003;28;20096;-77
2022/08/16 11:13:48;;;;;;;3.38;2.85;;;29.80;69.30;;;;;;5050335;28;20509;-76
2022/08/16 11:16:14;;;;;;;2.92;2.58;;;29.80;70.40;;;;;;5050239;28;20025;-75
2022/08/16 11:18:39;;;;;;;5.95;2.95;;;30.10;72.30;;;;;;5050660;28;20020;-76
2022/08/16 11:21:06;;;;;;;4.18;2.90;;;29.60;69.30;;;;;;5056814;28;20070;-75
2022/08/16 11:23:31;;;;;;;4.05;2.97;;;29.00;70.40;;;;;;5049364;28;20028;-76
2022/08/16 11:25:57;;;;;;;3.70;2.72;;;28.70;70.20;;;;;;5047518;28;20025;-78
2022/08/16 11:28:23;;;;;;;4.15;3.30;;;28.90;75.00;;;;;;5047460;28;20531;-78
2022/08/16 11:30:49;;;;;;;3.25;2.67;;;29.50;71.10;;;;;;5049339;28;20055;-78
2022/08/16 11:33:15;;;;;;;5.20;2.97;;;30.00;72.50;;;;;;5056518;28;20028;-79
2022/08/16 11:35:40;;;;;;;4.03;2.95;;;30.50;67.70;;;;;;5058388;28;20490;-78
2022/08/16 11:38:16;;;;;;;5.13;3.33;;;30.50;63.90;;;;;;5051472;28;20240;-78
2022/08/16 11:40:49;;;;;;;4.22;3.28;;;29.90;64.10;;;;;;5056858;28;20040;-81
2022/08/16 11:43:17;;;;;;;6.63;3.05;;;29.30;67.50;;;;;;5061601;28;20044;-80
2022/08/16 11:45:44;;;;;;;3.60;3.05;;;29.50;70.10;;;;;;5064179;28;20545;-80
2022/08/16 11:48:10;;;;;;;4.93;3.22;;;30.10;64.70;;;;;;5060771;28;20028;-81
2022/08/16 11:50:35;;;;;;;3.78;3.15;;;30.50;67.00;;;;;;5045702;28;20055;-80
2022/08/16 11:53:02;;;;;;;6.03;3.90;;;31.20;67.20;;;;;;5047586;28;20032;-76
2022/08/16 11:55:28;;;;;;;6.20;3.55;;;31.60;60.70;;;;;;5052060;28;20029;-78
2022/08/16 11:57:54;;;;;;;3.90;3.50;;;31.20;63.10;;;;;;5054455;28;20052;-77
2022/08/16 12:00:19;;;;;;;6.43;3.22;;;31.80;61.30;;;;;;5053984;28;20059;-78
2022/08/16 12:02:45;;;;;;;3.47;3.17;;;32.20;60.90;;;;;;5051691;28;20048;-74
2022/08/16 12:05:13;;;;;;;5.05;3.80;;;31.90;59.60;;;;;;5059651;28;20070;-76
2022/08/16 12:07:39;;;;;;;8.82;3.70;;;32.40;57.00;;;;;;5059711;28;20119;-74
2022/08/16 12:10:09;;;;;;;4.20;2.95;;;32.10;58.20;;;;;;5062128;28;20027;-74
2022/08/16 12:12:35;;;;;;;4.27;3.37;;;32.10;62.30;;;;;;5063156;28;20028;-76
2022/08/16 12:15:00;;;;;;;4.22;3.20;;;32.60;57.70;;;;;;5066233;28;20267;-75
2022/08/16 12:17:28;;;;;;;3.95;3.35;;;33.00;56.70;;;;;;5062769;28;20036;-73
2022/08/16 12:19:57;;;;;;;6.53;3.33;;;33.10;54.60;;;;;;5058700;28;20059;-74
2022/08/16 12:22:23;;;;;;;4.53;3.15;;;32.50;56.10;;;;;;5057665;28;20021;-77
2022/08/16 12:24:49;;;;;;;4.45;3.50;;;32.70;55.80;;;;;;5056240;28;20028;-75
2022/08/16 12:27:15;;;;;;;5.28;3.50;;;32.70;56.10;;;;;;5053577;28;20032;-73
2022/08/16 12:29:41;;;;;;;3.50;3.20;;;33.10;55.50;;;;;;5062128;28;20038;-75
2022/08/16 12:32:06;;;;;;;4.05;3.22;;;33.00;58.40;;;;;;5056780;28;20029;-73
2022/08/16 12:34:32;;;;;;;5.03;3.40;;;33.20;53.70;;;;;;5064364;28;20116;-74
2022/08/16 12:37:01;;;;;;;3.40;3.10;;;33.20;55.90;;;;;;5062666;28;20020;-78
2022/08/16 12:39:27;;;;;;;5.07;3.60;;;32.90;55.10;;;;;;5061614;28;20028;-75
2022/08/16 12:41:52;;;;;;;3.17;2.88;;;32.30;55.60;;;;;;5065125;28;20308;-77
2022/08/16 12:44:18;;;;;;;3.88;2.95;;;31.90;58.30;;;;;;5056015;28;20112;-74
2022/08/16 12:48:56;;;;;;;3.88;3.30;;;31.70;59.10;;;;;;5058672;28;20016;-77